sensor_id;sensor_type;location;lat;lon;timestamp;P1;durP1;ratioP1;P2;durP2;ratioP2
2698;SDS011;1359;51.798;12.174;2023-05-29T00:00:10;8.07;;;5.20;;
2698;SDS011;1359;51.798;12.174;2023-05-29T00:02:38;7.30;;;5.80;;
2698;SDS011;1359;51.798;12.174;2023-05-29T00:05:03;7.20;;;6.03;;
2698;SDS011;1359;51.798;12.174;2023-05-29T00:07:29;10.63;;;5.53;;
2698;SDS011;1359;51.798;12.174;2023-05-29T00:09:54;7.90;;;7.03;;
2698;SDS011;1359;51.798;12.174;2023-05-29T00:12:20;8.27;;;6.00;;
2698;SDS011;1359;51.798;12.174;2023-05-29T00:14:45;9.57;;;6.07;;
2698;SDS011;1359;51.798;12.174;2023-05-29T00:17:10;6.77;;;5.57;;
2698;SDS011;1359;51.798;12.174;2023-05-29T00:19:37;10.03;;;5.63;;
2698;SDS011;1359;51.798;12.174;2023-05-29T00:22:03;10.30;;;5.43;;
2698;SDS011;1359;51.798;12.174;2023-05-29T00:24:28;5.90;;;5.20;;
2698;SDS011;1359;51.798;12.174;2023-05-29T00:26:53;12.50;;;5.23;;
2698;SDS011;1359;51.798;12.174;2023-05-29T00:29:19;7.47;;;5.23;;
2698;SDS011;1359;51.798;12.174;2023-05-29T00:31:46;5.57;;;4.97;;
2698;SDS011;1359;51.798;12.174;2023-05-29T00:34:11;13.13;;;5.83;;
2698;SDS011;1359;51.798;12.174;2023-05-29T00:36:37;7.20;;;5.73;;
2698;SDS011;1359;51.798;12.174;2023-05-29T00:39:03;10.57;;;6.10;;
2698;SDS011;1359;51.798;12.174;2023-05-29T00:41:29;11.10;;;6.47;;
2698;SDS011;1359;51.798;12.174;2023-05-29T00:43:54;10.57;;;7.07;;
2698;SDS011;1359;51.798;12.174;2023-05-29T00:46:20;9.53;;;5.07;;
2698;SDS011;1359;51.798;12.174;2023-05-29T00:48:45;7.63;;;5.80;;
2698;SDS011;1359;51.798;12.174;2023-05-29T00:51:11;7.70;;;5.50;;
2698;SDS011;1359;51.798;12.174;2023-05-29T00:53:37;7.37;;;5.17;;
2698;SDS011;1359;51.798;12.174;2023-05-29T00:56:03;9.27;;;5.73;;
2698;SDS011;1359;51.798;12.174;2023-05-29T00:58:29;8.20;;;6.13;;
2698;SDS011;1359;51.798;12.174;2023-05-29T01:00:55;8.43;;;5.50;;
2698;SDS011;1359;51.798;12.174;2023-05-29T01:03:20;5.63;;;5.13;;
2698;SDS011;1359;51.798;12.174;2023-05-29T01:05:48;7.73;;;5.37;;
2698;SDS011;1359;51.798;12.174;2023-05-29T01:08:14;8.30;;;6.00;;
2698;SDS011;1359;51.798;12.174;2023-05-29T01:10:39;7.47;;;6.47;;
2698;SDS011;1359;51.798;12.174;2023-05-29T01:13:21;8.63;;;6.30;;
2698;SDS011;1359;51.798;12.174;2023-05-29T01:18:34;5.80;;;5.13;;
2698;SDS011;1359;51.798;12.174;2023-05-29T01:21:03;8.93;;;6.30;;
2698;SDS011;1359;51.798;12.174;2023-05-29T01:26:21;6.77;;;5.30;;
2698;SDS011;1359;51.798;12.174;2023-05-29T01:28:51;10.93;;;5.90;;
2698;SDS011;1359;51.798;12.174;2023-05-29T01:31:22;8.20;;;5.80;;
2698;SDS011;1359;51.798;12.174;2023-05-29T01:33:53;13.17;;;6.23;;
2698;SDS011;1359;51.798;12.174;2023-05-29T01:36:19;15.17;;;7.93;;
2698;SDS011;1359;51.798;12.174;2023-05-29T01:38:44;7.13;;;5.73;;
2698;SDS011;1359;51.798;12.174;2023-05-29T01:41:10;12.90;;;6.43;;
2698;SDS011;1359;51.798;12.174;2023-05-29T01:43:37;8.63;;;5.53;;
2698;SDS011;1359;51.798;12.174;2023-05-29T01:46:02;6.70;;;5.10;;
2698;SDS011;1359;51.798;12.174;2023-05-29T01:48:28;8.77;;;6.33;;
2698;SDS011;1359;51.798;12.174;2023-05-29T01:50:55;7.00;;;4.97;;
2698;SDS011;1359;51.798;12.174;2023-05-29T01:53:23;7.73;;;6.27;;
2698;SDS011;1359;51.798;12.174;2023-05-29T01:55:49;12.60;;;5.67;;
2698;SDS011;1359;51.798;12.174;2023-05-29T01:58:15;7.13;;;6.33;;
2698;SDS011;1359;51.798;12.174;2023-05-29T02:00:41;11.63;;;6.47;;
2698;SDS011;1359;51.798;12.174;2023-05-29T02:03:07;11.70;;;5.50;;
2698;SDS011;1359;51.798;12.174;2023-05-29T02:05:32;8.20;;;5.83;;
2698;SDS011;1359;51.798;12.174;2023-05-29T02:07:58;8.67;;;6.30;;
2698;SDS011;1359;51.798;12.174;2023-05-29T02:10:23;10.33;;;6.77;;
2698;SDS011;1359;51.798;12.174;2023-05-29T02:12:49;11.57;;;6.27;;
2698;SDS011;1359;51.798;12.174;2023-05-29T02:15:14;6.17;;;5.50;;
2698;SDS011;1359;51.798;12.174;2023-05-29T02:17:40;7.60;;;5.50;;
2698;SDS011;1359;51.798;12.174;2023-05-29T02:20:06;7.67;;;5.80;;
2698;SDS011;1359;51.798;12.174;2023-05-29T02:22:32;9.30;;;5.50;;
2698;SDS011;1359;51.798;12.174;2023-05-29T02:24:58;6.43;;;5.23;;
2698;SDS011;1359;51.798;12.174;2023-05-29T02:27:23;8.27;;;5.40;;
2698;SDS011;1359;51.798;12.174;2023-05-29T02:29:48;8.47;;;6.10;;
2698;SDS011;1359;51.798;12.174;2023-05-29T02:32:14;15.93;;;5.67;;
2698;SDS011;1359;51.798;12.174;2023-05-29T02:34:39;10.60;;;6.13;;
2698;SDS011;1359;51.798;12.174;2023-05-29T02:37:05;8.93;;;5.87;;
2698;SDS011;1359;51.798;12.174;2023-05-29T02:39:30;11.30;;;5.70;;
2698;SDS011;1359;51.798;12.174;2023-05-29T02:41:56;8.87;;;6.17;;
2698;SDS011;1359;51.798;12.174;2023-05-29T02:44:21;7.83;;;5.07;;
2698;SDS011;1359;51.798;12.174;2023-05-29T02:46:46;7.07;;;5.10;;
2698;SDS011;1359;51.798;12.174;2023-05-29T02:49:12;10.50;;;6.00;;
2698;SDS011;1359;51.798;12.174;2023-05-29T02:51:37;6.10;;;4.90;;
2698;SDS011;1359;51.798;12.174;2023-05-29T02:54:03;9.67;;;6.10;;
2698;SDS011;1359;51.798;12.174;2023-05-29T02:56:28;11.50;;;7.30;;
2698;SDS011;1359;51.798;12.174;2023-05-29T02:58:53;8.30;;;5.30;;
2698;SDS011;1359;51.798;12.174;2023-05-29T03:01:19;14.50;;;5.93;;
2698;SDS011;1359;51.798;12.174;2023-05-29T03:03:44;7.70;;;6.20;;
2698;SDS011;1359;51.798;12.174;2023-05-29T03:06:11;7.30;;;5.30;;
2698;SDS011;1359;51.798;12.174;2023-05-29T03:08:39;9.63;;;6.37;;
2698;SDS011;1359;51.798;12.174;2023-05-29T03:11:10;13.47;;;6.13;;
2698;SDS011;1359;51.798;12.174;2023-05-29T03:13:36;9.33;;;5.57;;
2698;SDS011;1359;51.798;12.174;2023-05-29T03:16:04;9.57;;;4.77;;
2698;SDS011;1359;51.798;12.174;2023-05-29T03:18:30;6.17;;;5.50;;
2698;SDS011;1359;51.798;12.174;2023-05-29T03:20:55;10.93;;;5.60;;
2698;SDS011;1359;51.798;12.174;2023-05-29T03:23:21;7.20;;;5.27;;
2698;SDS011;1359;51.798;12.174;2023-05-29T03:25:46;10.07;;;6.10;;
2698;SDS011;1359;51.798;12.174;2023-05-29T03:28:12;6.43;;;4.77;;
2698;SDS011;1359;51.798;12.174;2023-05-29T03:30:38;8.17;;;5.93;;
2698;SDS011;1359;51.798;12.174;2023-05-29T03:33:04;6.50;;;5.67;;
2698;SDS011;1359;51.798;12.174;2023-05-29T03:35:50;9.83;;;5.97;;
2698;SDS011;1359;51.798;12.174;2023-05-29T03:38:15;7.70;;;7.00;;
2698;SDS011;1359;51.798;12.174;2023-05-29T03:40:41;10.67;;;5.63;;
2698;SDS011;1359;51.798;12.174;2023-05-29T03:43:07;7.80;;;5.33;;
2698;SDS011;1359;51.798;12.174;2023-05-29T03:45:32;8.23;;;6.30;;
2698;SDS011;1359;51.798;12.174;2023-05-29T03:47:57;7.83;;;6.07;;
2698;SDS011;1359;51.798;12.174;2023-05-29T03:50:23;13.13;;;5.80;;
2698;SDS011;1359;51.798;12.174;2023-05-29T03:52:48;5.70;;;5.13;;
2698;SDS011;1359;51.798;12.174;2023-05-29T03:55:14;9.40;;;5.97;;
2698;SDS011;1359;51.798;12.174;2023-05-29T03:57:40;8.77;;;6.10;;
2698;SDS011;1359;51.798;12.174;2023-05-29T04:00:07;8.90;;;5.93;;
2698;SDS011;1359;51.798;12.174;2023-05-29T04:02:38;11.23;;;6.20;;
2698;SDS011;1359;51.798;12.174;2023-05-29T04:05:05;8.00;;;5.57;;
2698;SDS011;1359;51.798;12.174;2023-05-29T04:07:32;8.27;;;5.43;;
2698;SDS011;1359;51.798;12.174;2023-05-29T04:09:57;11.20;;;6.20;;
2698;SDS011;1359;51.798;12.174;2023-05-29T04:12:23;7.63;;;5.73;;
2698;SDS011;1359;51.798;12.174;2023-05-29T04:14:48;9.53;;;4.73;;
2698;SDS011;1359;51.798;12.174;2023-05-29T04:17:13;12.60;;;6.30;;
2698;SDS011;1359;51.798;12.174;2023-05-29T04:19:39;8.57;;;5.73;;
2698;SDS011;1359;51.798;12.174;2023-05-29T04:22:04;9.83;;;5.87;;
2698;SDS011;1359;51.798;12.174;2023-05-29T04:24:30;6.43;;;5.50;;
2698;SDS011;1359;51.798;12.174;2023-05-29T04:26:57;12.73;;;6.83;;
2698;SDS011;1359;51.798;12.174;2023-05-29T04:29:22;18.47;;;6.47;;
2698;SDS011;1359;51.798;12.174;2023-05-29T04:31:49;9.83;;;6.03;;
2698;SDS011;1359;51.798;12.174;2023-05-29T04:34:16;7.30;;;6.60;;
2698;SDS011;1359;51.798;12.174;2023-05-29T04:36:43;7.80;;;5.80;;
2698;SDS011;1359;51.798;12.174;2023-05-29T04:39:11;7.13;;;5.60;;
2698;SDS011;1359;51.798;12.174;2023-05-29T04:41:37;10.03;;;6.63;;
2698;SDS011;1359;51.798;12.174;2023-05-29T04:44:04;8.83;;;6.13;;
2698;SDS011;1359;51.798;12.174;2023-05-29T04:46:37;10.33;;;6.53;;
2698;SDS011;1359;51.798;12.174;2023-05-29T04:49:03;7.43;;;6.03;;
2698;SDS011;1359;51.798;12.174;2023-05-29T04:51:29;12.77;;;7.77;;
2698;SDS011;1359;51.798;12.174;2023-05-29T04:53:55;6.63;;;5.93;;
2698;SDS011;1359;51.798;12.174;2023-05-29T04:56:22;9.03;;;7.53;;
2698;SDS011;1359;51.798;12.174;2023-05-29T04:58:47;11.70;;;6.97;;
2698;SDS011;1359;51.798;12.174;2023-05-29T05:01:13;9.63;;;5.97;;
2698;SDS011;1359;51.798;12.174;2023-05-29T05:03:42;9.10;;;6.23;;
2698;SDS011;1359;51.798;12.174;2023-05-29T05:06:08;8.63;;;6.93;;
2698;SDS011;1359;51.798;12.174;2023-05-29T05:08:33;14.37;;;6.67;;
2698;SDS011;1359;51.798;12.174;2023-05-29T05:10:59;7.77;;;5.43;;
2698;SDS011;1359;51.798;12.174;2023-05-29T05:13:25;9.77;;;7.00;;
2698;SDS011;1359;51.798;12.174;2023-05-29T05:15:51;10.63;;;6.90;;
2698;SDS011;1359;51.798;12.174;2023-05-29T05:18:16;9.07;;;7.33;;
2698;SDS011;1359;51.798;12.174;2023-05-29T05:20:46;11.20;;;6.30;;
2698;SDS011;1359;51.798;12.174;2023-05-29T05:23:12;10.60;;;6.70;;
2698;SDS011;1359;51.798;12.174;2023-05-29T05:25:37;11.30;;;7.40;;
2698;SDS011;1359;51.798;12.174;2023-05-29T05:28:03;9.70;;;6.87;;
2698;SDS011;1359;51.798;12.174;2023-05-29T05:30:30;9.70;;;6.07;;
2698;SDS011;1359;51.798;12.174;2023-05-29T05:32:56;11.57;;;7.10;;
2698;SDS011;1359;51.798;12.174;2023-05-29T05:35:22;8.37;;;6.23;;
2698;SDS011;1359;51.798;12.174;2023-05-29T05:37:47;11.70;;;6.23;;
2698;SDS011;1359;51.798;12.174;2023-05-29T05:40:13;9.33;;;7.00;;
2698;SDS011;1359;51.798;12.174;2023-05-29T05:42:51;9.83;;;7.07;;
2698;SDS011;1359;51.798;12.174;2023-05-29T05:45:21;13.07;;;6.20;;
2698;SDS011;1359;51.798;12.174;2023-05-29T05:51:32;12.20;;;9.17;;
2698;SDS011;1359;51.798;12.174;2023-05-29T05:53:57;12.60;;;6.70;;
2698;SDS011;1359;51.798;12.174;2023-05-29T05:56:25;8.43;;;5.97;;
2698;SDS011;1359;51.798;12.174;2023-05-29T05:58:51;7.43;;;6.10;;
2698;SDS011;1359;51.798;12.174;2023-05-29T06:01:18;9.50;;;7.00;;
2698;SDS011;1359;51.798;12.174;2023-05-29T06:03:44;7.10;;;5.60;;
2698;SDS011;1359;51.798;12.174;2023-05-29T06:06:09;10.33;;;5.77;;
2698;SDS011;1359;51.798;12.174;2023-05-29T06:08:37;14.37;;;6.40;;
2698;SDS011;1359;51.798;12.174;2023-05-29T06:11:03;10.80;;;6.60;;
2698;SDS011;1359;51.798;12.174;2023-05-29T06:13:30;13.93;;;7.07;;
2698;SDS011;1359;51.798;12.174;2023-05-29T06:16:03;9.23;;;6.57;;
2698;SDS011;1359;51.798;12.174;2023-05-29T06:18:28;11.40;;;5.87;;
2698;SDS011;1359;51.798;12.174;2023-05-29T06:20:54;8.20;;;6.47;;
2698;SDS011;1359;51.798;12.174;2023-05-29T06:23:19;10.50;;;6.13;;
2698;SDS011;1359;51.798;12.174;2023-05-29T06:25:45;12.53;;;6.50;;
2698;SDS011;1359;51.798;12.174;2023-05-29T06:28:11;10.87;;;6.33;;
2698;SDS011;1359;51.798;12.174;2023-05-29T06:30:36;13.70;;;5.73;;
2698;SDS011;1359;51.798;12.174;2023-05-29T06:33:05;8.53;;;5.47;;
2698;SDS011;1359;51.798;12.174;2023-05-29T06:35:31;9.03;;;5.17;;
2698;SDS011;1359;51.798;12.174;2023-05-29T06:37:56;13.33;;;6.70;;
2698;SDS011;1359;51.798;12.174;2023-05-29T06:40:22;9.20;;;5.37;;
2698;SDS011;1359;51.798;12.174;2023-05-29T06:42:48;9.70;;;5.87;;
2698;SDS011;1359;51.798;12.174;2023-05-29T06:45:14;9.70;;;7.07;;
2698;SDS011;1359;51.798;12.174;2023-05-29T06:47:40;7.43;;;5.10;;
2698;SDS011;1359;51.798;12.174;2023-05-29T06:50:06;7.70;;;5.00;;
2698;SDS011;1359;51.798;12.174;2023-05-29T06:52:32;7.53;;;6.77;;
2698;SDS011;1359;51.798;12.174;2023-05-29T06:55:16;9.20;;;6.50;;
2698;SDS011;1359;51.798;12.174;2023-05-29T06:57:41;9.20;;;5.80;;
2698;SDS011;1359;51.798;12.174;2023-05-29T07:00:07;9.40;;;5.97;;
2698;SDS011;1359;51.798;12.174;2023-05-29T07:02:38;6.77;;;4.63;;
2698;SDS011;1359;51.798;12.174;2023-05-29T07:05:04;10.07;;;5.97;;
2698;SDS011;1359;51.798;12.174;2023-05-29T07:07:31;6.37;;;5.43;;
2698;SDS011;1359;51.798;12.174;2023-05-29T07:09:57;10.30;;;5.50;;
2698;SDS011;1359;51.798;12.174;2023-05-29T07:12:22;11.37;;;5.73;;
2698;SDS011;1359;51.798;12.174;2023-05-29T07:14:51;11.27;;;6.30;;
2698;SDS011;1359;51.798;12.174;2023-05-29T07:17:16;10.87;;;5.73;;
2698;SDS011;1359;51.798;12.174;2023-05-29T07:19:42;11.90;;;5.97;;
2698;SDS011;1359;51.798;12.174;2023-05-29T07:22:08;14.07;;;5.57;;
2698;SDS011;1359;51.798;12.174;2023-05-29T07:24:34;8.97;;;4.83;;
2698;SDS011;1359;51.798;12.174;2023-05-29T07:27:02;11.63;;;6.00;;
2698;SDS011;1359;51.798;12.174;2023-05-29T07:29:27;13.50;;;5.50;;
2698;SDS011;1359;51.798;12.174;2023-05-29T07:31:53;6.40;;;4.80;;
2698;SDS011;1359;51.798;12.174;2023-05-29T07:34:21;8.67;;;6.60;;
2698;SDS011;1359;51.798;12.174;2023-05-29T07:37:03;11.30;;;5.30;;
2698;SDS011;1359;51.798;12.174;2023-05-29T07:39:31;9.30;;;6.40;;
2698;SDS011;1359;51.798;12.174;2023-05-29T07:41:59;8.67;;;6.03;;
2698;SDS011;1359;51.798;12.174;2023-05-29T07:44:26;9.50;;;5.07;;
2698;SDS011;1359;51.798;12.174;2023-05-29T07:46:52;6.93;;;4.93;;
2698;SDS011;1359;51.798;12.174;2023-05-29T07:49:40;10.43;;;5.83;;
2698;SDS011;1359;51.798;12.174;2023-05-29T07:52:06;6.27;;;4.97;;
2698;SDS011;1359;51.798;12.174;2023-05-29T07:54:32;9.43;;;6.20;;
2698;SDS011;1359;51.798;12.174;2023-05-29T07:57:01;8.10;;;5.40;;
2698;SDS011;1359;51.798;12.174;2023-05-29T07:59:36;7.00;;;5.23;;
2698;SDS011;1359;51.798;12.174;2023-05-29T08:02:01;9.13;;;6.47;;
2698;SDS011;1359;51.798;12.174;2023-05-29T08:04:42;8.27;;;5.07;;
2698;SDS011;1359;51.798;12.174;2023-05-29T08:07:09;9.13;;;5.53;;
2698;SDS011;1359;51.798;12.174;2023-05-29T08:09:35;6.43;;;4.53;;
2698;SDS011;1359;51.798;12.174;2023-05-29T08:12:01;9.83;;;5.27;;
2698;SDS011;1359;51.798;12.174;2023-05-29T08:14:27;6.17;;;5.43;;
2698;SDS011;1359;51.798;12.174;2023-05-29T08:16:52;10.67;;;6.50;;
2698;SDS011;1359;51.798;12.174;2023-05-29T08:19:18;5.47;;;4.63;;
2698;SDS011;1359;51.798;12.174;2023-05-29T08:21:43;5.13;;;4.53;;
2698;SDS011;1359;51.798;12.174;2023-05-29T08:24:09;5.40;;;4.67;;
2698;SDS011;1359;51.798;12.174;2023-05-29T08:26:34;6.50;;;4.10;;
2698;SDS011;1359;51.798;12.174;2023-05-29T08:29:00;5.67;;;5.00;;
2698;SDS011;1359;51.798;12.174;2023-05-29T08:31:25;5.60;;;4.60;;
2698;SDS011;1359;51.798;12.174;2023-05-29T08:33:52;5.57;;;5.03;;
2698;SDS011;1359;51.798;12.174;2023-05-29T08:36:17;6.30;;;5.00;;
2698;SDS011;1359;51.798;12.174;2023-05-29T08:38:43;11.10;;;5.57;;
2698;SDS011;1359;51.798;12.174;2023-05-29T08:41:08;7.93;;;4.70;;
2698;SDS011;1359;51.798;12.174;2023-05-29T08:43:36;5.43;;;4.07;;
2698;SDS011;1359;51.798;12.174;2023-05-29T08:46:02;6.57;;;4.50;;
2698;SDS011;1359;51.798;12.174;2023-05-29T08:48:29;7.00;;;4.67;;
2698;SDS011;1359;51.798;12.174;2023-05-29T08:50:56;7.33;;;4.67;;
2698;SDS011;1359;51.798;12.174;2023-05-29T08:53:22;9.30;;;4.63;;
2698;SDS011;1359;51.798;12.174;2023-05-29T08:55:47;8.07;;;4.27;;
2698;SDS011;1359;51.798;12.174;2023-05-29T08:58:13;4.97;;;4.10;;
2698;SDS011;1359;51.798;12.174;2023-05-29T09:00:39;7.30;;;5.00;;
2698;SDS011;1359;51.798;12.174;2023-05-29T09:03:06;5.83;;;4.50;;
2698;SDS011;1359;51.798;12.174;2023-05-29T09:05:32;9.90;;;5.50;;
2698;SDS011;1359;51.798;12.174;2023-05-29T09:07:57;5.70;;;4.67;;
2698;SDS011;1359;51.798;12.174;2023-05-29T09:10:24;5.93;;;4.70;;
2698;SDS011;1359;51.798;12.174;2023-05-29T09:12:50;8.13;;;4.87;;
2698;SDS011;1359;51.798;12.174;2023-05-29T09:15:17;12.30;;;4.87;;
2698;SDS011;1359;51.798;12.174;2023-05-29T09:17:43;5.80;;;4.77;;
2698;SDS011;1359;51.798;12.174;2023-05-29T09:20:14;11.73;;;4.20;;
2698;SDS011;1359;51.798;12.174;2023-05-29T09:22:42;5.83;;;4.20;;
2698;SDS011;1359;51.798;12.174;2023-05-29T09:25:07;5.03;;;3.77;;
2698;SDS011;1359;51.798;12.174;2023-05-29T09:27:38;6.67;;;4.77;;
2698;SDS011;1359;51.798;12.174;2023-05-29T09:30:03;8.00;;;4.83;;
2698;SDS011;1359;51.798;12.174;2023-05-29T09:32:31;7.93;;;3.53;;
2698;SDS011;1359;51.798;12.174;2023-05-29T09:34:59;6.37;;;3.90;;
2698;SDS011;1359;51.798;12.174;2023-05-29T09:37:25;5.83;;;4.23;;
2698;SDS011;1359;51.798;12.174;2023-05-29T09:39:50;6.97;;;4.50;;
2698;SDS011;1359;51.798;12.174;2023-05-29T09:42:19;10.80;;;4.97;;
2698;SDS011;1359;51.798;12.174;2023-05-29T09:44:45;6.33;;;4.40;;
2698;SDS011;1359;51.798;12.174;2023-05-29T09:47:14;15.30;;;4.30;;
2698;SDS011;1359;51.798;12.174;2023-05-29T09:49:41;7.00;;;4.63;;
2698;SDS011;1359;51.798;12.174;2023-05-29T09:52:06;4.87;;;4.33;;
2698;SDS011;1359;51.798;12.174;2023-05-29T09:54:34;5.73;;;4.20;;
2698;SDS011;1359;51.798;12.174;2023-05-29T09:57:00;4.23;;;3.80;;
2698;SDS011;1359;51.798;12.174;2023-05-29T09:59:26;4.83;;;4.33;;
2698;SDS011;1359;51.798;12.174;2023-05-29T10:01:57;5.97;;;4.00;;
2698;SDS011;1359;51.798;12.174;2023-05-29T10:04:25;5.47;;;4.30;;
2698;SDS011;1359;51.798;12.174;2023-05-29T10:06:51;5.07;;;4.57;;
2698;SDS011;1359;51.798;12.174;2023-05-29T10:09:17;8.70;;;4.40;;
2698;SDS011;1359;51.798;12.174;2023-05-29T10:11:43;9.50;;;4.40;;
2698;SDS011;1359;51.798;12.174;2023-05-29T10:14:09;8.07;;;4.27;;
2698;SDS011;1359;51.798;12.174;2023-05-29T10:16:35;4.27;;;3.87;;
2698;SDS011;1359;51.798;12.174;2023-05-29T10:19:05;5.07;;;4.07;;
2698;SDS011;1359;51.798;12.174;2023-05-29T10:21:32;4.83;;;3.60;;
2698;SDS011;1359;51.798;12.174;2023-05-29T10:24:01;8.47;;;4.30;;
2698;SDS011;1359;51.798;12.174;2023-05-29T10:26:31;6.30;;;3.90;;
2698;SDS011;1359;51.798;12.174;2023-05-29T10:31:28;6.40;;;4.43;;
2698;SDS011;1359;51.798;12.174;2023-05-29T10:34:14;5.10;;;4.60;;
2698;SDS011;1359;51.798;12.174;2023-05-29T10:36:52;5.63;;;4.40;;
2698;SDS011;1359;51.798;12.174;2023-05-29T10:39:21;5.30;;;4.37;;
2698;SDS011;1359;51.798;12.174;2023-05-29T10:41:47;6.30;;;4.20;;
2698;SDS011;1359;51.798;12.174;2023-05-29T10:44:57;3.87;;;3.50;;
2698;SDS011;1359;51.798;12.174;2023-05-29T10:49:26;7.03;;;4.43;;
2698;SDS011;1359;51.798;12.174;2023-05-29T10:51:51;9.33;;;4.80;;
2698;SDS011;1359;51.798;12.174;2023-05-29T10:54:24;4.23;;;3.80;;
2698;SDS011;1359;51.798;12.174;2023-05-29T10:56:56;7.10;;;4.10;;
2698;SDS011;1359;51.798;12.174;2023-05-29T10:59:22;9.27;;;4.67;;
2698;SDS011;1359;51.798;12.174;2023-05-29T11:01:52;5.23;;;3.70;;
2698;SDS011;1359;51.798;12.174;2023-05-29T11:06:47;5.33;;;3.57;;
2698;SDS011;1359;51.798;12.174;2023-05-29T11:14:45;4.73;;;3.90;;
2698;SDS011;1359;51.798;12.174;2023-05-29T11:17:28;4.17;;;3.77;;
2698;SDS011;1359;51.798;12.174;2023-05-29T11:19:54;7.03;;;3.90;;
2698;SDS011;1359;51.798;12.174;2023-05-29T11:22:21;6.50;;;4.43;;
2698;SDS011;1359;51.798;12.174;2023-05-29T11:24:48;6.60;;;4.30;;
2698;SDS011;1359;51.798;12.174;2023-05-29T11:27:15;5.50;;;4.40;;
2698;SDS011;1359;51.798;12.174;2023-05-29T11:29:41;6.77;;;4.43;;
2698;SDS011;1359;51.798;12.174;2023-05-29T11:32:06;5.10;;;4.00;;
2698;SDS011;1359;51.798;12.174;2023-05-29T11:34:35;8.10;;;4.10;;
2698;SDS011;1359;51.798;12.174;2023-05-29T11:37:03;6.03;;;4.37;;
2698;SDS011;1359;51.798;12.174;2023-05-29T11:39:29;7.87;;;4.70;;
2698;SDS011;1359;51.798;12.174;2023-05-29T11:41:56;4.77;;;4.27;;
2698;SDS011;1359;51.798;12.174;2023-05-29T11:44:24;5.70;;;5.00;;
2698;SDS011;1359;51.798;12.174;2023-05-29T11:47:03;9.07;;;4.60;;
2698;SDS011;1359;51.798;12.174;2023-05-29T11:49:33;5.40;;;4.90;;
2698;SDS011;1359;51.798;12.174;2023-05-29T11:52:09;5.20;;;4.47;;
2698;SDS011;1359;51.798;12.174;2023-05-29T11:54:34;5.90;;;5.10;;
2698;SDS011;1359;51.798;12.174;2023-05-29T11:57:00;8.13;;;4.37;;
2698;SDS011;1359;51.798;12.174;2023-05-29T11:59:28;5.13;;;4.63;;
2698;SDS011;1359;51.798;12.174;2023-05-29T12:01:53;8.73;;;4.13;;
2698;SDS011;1359;51.798;12.174;2023-05-29T12:04:19;4.90;;;4.40;;
2698;SDS011;1359;51.798;12.174;2023-05-29T12:06:44;7.47;;;4.80;;
2698;SDS011;1359;51.798;12.174;2023-05-29T12:09:22;7.70;;;4.07;;
2698;SDS011;1359;51.798;12.174;2023-05-29T12:11:49;4.87;;;4.20;;
2698;SDS011;1359;51.798;12.174;2023-05-29T12:14:14;5.90;;;4.93;;
2698;SDS011;1359;51.798;12.174;2023-05-29T12:16:39;7.03;;;4.40;;
2698;SDS011;1359;51.798;12.174;2023-05-29T12:19:05;6.33;;;4.43;;
2698;SDS011;1359;51.798;12.174;2023-05-29T12:21:30;8.60;;;4.07;;
2698;SDS011;1359;51.798;12.174;2023-05-29T12:23:57;5.30;;;4.70;;
2698;SDS011;1359;51.798;12.174;2023-05-29T12:26:23;6.63;;;4.53;;
2698;SDS011;1359;51.798;12.174;2023-05-29T12:28:50;6.43;;;5.30;;
2698;SDS011;1359;51.798;12.174;2023-05-29T12:31:26;6.70;;;4.87;;
2698;SDS011;1359;51.798;12.174;2023-05-29T12:33:52;7.50;;;4.90;;
2698;SDS011;1359;51.798;12.174;2023-05-29T12:36:18;6.50;;;4.27;;
2698;SDS011;1359;51.798;12.174;2023-05-29T12:38:47;10.23;;;5.57;;
2698;SDS011;1359;51.798;12.174;2023-05-29T12:43:47;6.43;;;5.03;;
2698;SDS011;1359;51.798;12.174;2023-05-29T12:46:13;5.60;;;4.77;;
2698;SDS011;1359;51.798;12.174;2023-05-29T12:48:38;7.80;;;4.10;;
2698;SDS011;1359;51.798;12.174;2023-05-29T12:51:07;5.80;;;5.20;;
2698;SDS011;1359;51.798;12.174;2023-05-29T12:53:33;6.90;;;4.80;;
2698;SDS011;1359;51.798;12.174;2023-05-29T12:55:58;15.20;;;5.70;;
2698;SDS011;1359;51.798;12.174;2023-05-29T12:58:24;10.10;;;4.70;;
2698;SDS011;1359;51.798;12.174;2023-05-29T13:00:51;9.23;;;4.60;;
2698;SDS011;1359;51.798;12.174;2023-05-29T13:03:20;5.20;;;4.50;;
2698;SDS011;1359;51.798;12.174;2023-05-29T13:05:48;8.73;;;5.00;;
2698;SDS011;1359;51.798;12.174;2023-05-29T13:08:14;12.20;;;4.90;;
2698;SDS011;1359;51.798;12.174;2023-05-29T13:10:39;5.13;;;4.63;;
2698;SDS011;1359;51.798;12.174;2023-05-29T13:13:05;7.53;;;4.93;;
2698;SDS011;1359;51.798;12.174;2023-05-29T13:15:30;10.50;;;4.90;;
2698;SDS011;1359;51.798;12.174;2023-05-29T13:17:57;6.77;;;4.97;;
2698;SDS011;1359;51.798;12.174;2023-05-29T13:20:23;5.17;;;4.67;;
2698;SDS011;1359;51.798;12.174;2023-05-29T13:22:48;8.00;;;6.23;;
2698;SDS011;1359;51.798;12.174;2023-05-29T13:25:14;7.73;;;5.17;;
2698;SDS011;1359;51.798;12.174;2023-05-29T13:27:41;6.90;;;4.23;;
2698;SDS011;1359;51.798;12.174;2023-05-29T13:30:07;7.53;;;4.97;;
2698;SDS011;1359;51.798;12.174;2023-05-29T13:32:34;7.10;;;4.13;;
2698;SDS011;1359;51.798;12.174;2023-05-29T13:34:59;9.10;;;4.40;;
2698;SDS011;1359;51.798;12.174;2023-05-29T13:37:25;8.10;;;4.00;;
2698;SDS011;1359;51.798;12.174;2023-05-29T13:39:52;9.73;;;5.07;;
2698;SDS011;1359;51.798;12.174;2023-05-29T13:42:18;10.87;;;4.83;;
2698;SDS011;1359;51.798;12.174;2023-05-29T13:44:43;9.50;;;5.00;;
2698;SDS011;1359;51.798;12.174;2023-05-29T13:47:08;6.27;;;4.50;;
2698;SDS011;1359;51.798;12.174;2023-05-29T13:49:34;8.20;;;4.50;;
2698;SDS011;1359;51.798;12.174;2023-05-29T13:52:00;8.87;;;5.20;;
2698;SDS011;1359;51.798;12.174;2023-05-29T13:54:25;5.40;;;3.77;;
2698;SDS011;1359;51.798;12.174;2023-05-29T13:56:52;5.60;;;4.33;;
2698;SDS011;1359;51.798;12.174;2023-05-29T13:59:17;5.23;;;4.33;;
2698;SDS011;1359;51.798;12.174;2023-05-29T14:01:43;5.90;;;4.70;;
2698;SDS011;1359;51.798;12.174;2023-05-29T14:04:09;7.80;;;5.03;;
2698;SDS011;1359;51.798;12.174;2023-05-29T14:06:35;6.10;;;5.27;;
2698;SDS011;1359;51.798;12.174;2023-05-29T14:09:02;7.20;;;4.40;;
2698;SDS011;1359;51.798;12.174;2023-05-29T14:11:27;6.33;;;4.23;;
2698;SDS011;1359;51.798;12.174;2023-05-29T14:13:53;7.40;;;5.60;;
2698;SDS011;1359;51.798;12.174;2023-05-29T14:16:18;11.47;;;4.57;;
2698;SDS011;1359;51.798;12.174;2023-05-29T14:18:43;9.20;;;4.73;;
2698;SDS011;1359;51.798;12.174;2023-05-29T14:21:09;4.70;;;4.30;;
2698;SDS011;1359;51.798;12.174;2023-05-29T14:23:35;6.40;;;5.00;;
2698;SDS011;1359;51.798;12.174;2023-05-29T14:26:01;5.70;;;3.90;;
2698;SDS011;1359;51.798;12.174;2023-05-29T14:28:26;6.37;;;4.43;;
2698;SDS011;1359;51.798;12.174;2023-05-29T14:30:52;5.90;;;4.60;;
2698;SDS011;1359;51.798;12.174;2023-05-29T14:33:17;8.20;;;4.50;;
2698;SDS011;1359;51.798;12.174;2023-05-29T14:35:43;5.00;;;4.20;;
2698;SDS011;1359;51.798;12.174;2023-05-29T14:38:08;5.33;;;4.67;;
2698;SDS011;1359;51.798;12.174;2023-05-29T14:40:33;11.43;;;4.73;;
2698;SDS011;1359;51.798;12.174;2023-05-29T14:43:01;9.93;;;4.30;;
2698;SDS011;1359;51.798;12.174;2023-05-29T14:45:26;6.60;;;4.30;;
2698;SDS011;1359;51.798;12.174;2023-05-29T14:47:51;10.10;;;4.67;;
2698;SDS011;1359;51.798;12.174;2023-05-29T14:50:17;8.27;;;5.00;;
2698;SDS011;1359;51.798;12.174;2023-05-29T14:52:42;6.90;;;5.10;;
2698;SDS011;1359;51.798;12.174;2023-05-29T14:55:07;9.37;;;4.80;;
2698;SDS011;1359;51.798;12.174;2023-05-29T14:57:33;7.43;;;5.03;;
2698;SDS011;1359;51.798;12.174;2023-05-29T15:00:00;6.57;;;4.43;;
2698;SDS011;1359;51.798;12.174;2023-05-29T15:02:25;5.10;;;3.80;;
2698;SDS011;1359;51.798;12.174;2023-05-29T15:04:51;6.77;;;3.93;;
2698;SDS011;1359;51.798;12.174;2023-05-29T15:07:16;5.90;;;4.33;;
2698;SDS011;1359;51.798;12.174;2023-05-29T15:09:42;6.50;;;4.03;;
2698;SDS011;1359;51.798;12.174;2023-05-29T15:12:08;9.10;;;4.23;;
2698;SDS011;1359;51.798;12.174;2023-05-29T15:14:33;6.93;;;4.10;;
2698;SDS011;1359;51.798;12.174;2023-05-29T15:16:59;8.07;;;5.33;;
2698;SDS011;1359;51.798;12.174;2023-05-29T15:19:25;5.90;;;3.63;;